createdAt,value
2023-02-14T00:00:43.782Z,13.63
2023-02-14T00:03:16.232Z,14.30
2023-02-14T00:05:48.164Z,16.17
2023-02-14T00:08:20.100Z,14.32
2023-02-14T00:10:52.100Z,15.88
2023-02-14T00:13:25.735Z,14.52
2023-02-14T00:15:57.857Z,21.40
2023-02-14T00:18:48.491Z,14.73
2023-02-14T00:21:20.483Z,18.83
2023-02-14T00:23:52.589Z,15.20
2023-02-14T00:26:24.532Z,15.70
2023-02-14T00:28:56.558Z,15.48
2023-02-14T00:31:28.698Z,14.15
2023-02-14T00:34:00.700Z,16.02
2023-02-14T00:36:32.795Z,18.05
2023-02-14T00:39:06.850Z,17.33
2023-02-14T00:41:39.379Z,14.23
2023-02-14T00:44:12.562Z,16.63
2023-02-14T00:46:44.574Z,15.85
2023-02-14T00:49:16.642Z,13.75
2023-02-14T00:51:48.570Z,14.80
2023-02-14T00:54:20.471Z,14.05
2023-02-14T00:56:52.450Z,15.75
2023-02-14T00:59:24.470Z,12.13
2023-02-14T01:01:56.434Z,14.13
2023-02-14T01:04:28.330Z,15.70
2023-02-14T01:07:00.296Z,15.13
2023-02-14T01:09:32.188Z,14.52
2023-02-14T01:12:04.331Z,15.25
2023-02-14T01:14:36.343Z,16.55
2023-02-14T01:17:08.309Z,13.30
2023-02-14T01:19:42.758Z,15.35
2023-02-14T01:22:14.773Z,13.27
2023-02-14T01:24:46.730Z,12.35
2023-02-14T01:27:18.855Z,10.45
2023-02-14T01:29:50.879Z,12.63
2023-02-14T01:32:22.987Z,16.30
2023-02-14T01:34:55.108Z,14.50
2023-02-14T01:37:27.382Z,12.52
2023-02-14T01:39:59.510Z,13.20
2023-02-14T01:42:33.699Z,15.73
2023-02-14T01:45:15.044Z,18.20
2023-02-14T01:47:52.104Z,17.08
2023-02-14T01:50:32.614Z,15.85
2023-02-14T01:53:08.569Z,15.68
2023-02-14T01:55:44.759Z,15.98
2023-02-14T01:58:25.395Z,19.23
2023-02-14T02:00:58.298Z,12.20
2023-02-14T02:03:38.869Z,20.33
2023-02-14T02:06:22.447Z,15.95
2023-02-14T02:09:31.473Z,15.82
2023-02-14T02:12:03.948Z,16.67
2023-02-14T02:14:36.296Z,14.60
2023-02-14T02:17:42.174Z,16.85
2023-02-14T02:20:35.301Z,21.27
2023-02-14T02:23:48.753Z,15.18
2023-02-14T02:26:23.581Z,18.42
2023-02-14T02:29:10.798Z,17.67
2023-02-14T02:31:51.695Z,17.70
2023-02-14T02:34:26.627Z,13.73
2023-02-14T02:36:58.421Z,17.20
2023-02-14T02:39:45.413Z,15.80
2023-02-14T02:42:30.194Z,19.95
2023-02-14T02:45:10.097Z,15.80
2023-02-14T02:47:53.215Z,16.47
2023-02-14T02:51:12.945Z,15.98
2023-02-14T02:53:54.294Z,14.50
2023-02-14T02:56:45.728Z,19.58
2023-02-14T02:59:38.088Z,20.50
2023-02-14T03:02:13.114Z,19.33
2023-02-14T03:04:56.218Z,22.90
2023-02-14T03:07:37.373Z,20.02
2023-02-14T03:10:15.234Z,18.60
2023-02-14T03:12:54.711Z,20.13
2023-02-14T03:15:47.898Z,13.43
2023-02-14T03:18:44.770Z,20.27
2023-02-14T03:21:19.683Z,19.77
2023-02-14T03:23:51.521Z,18.65
2023-02-14T03:26:38.261Z,20.73
2023-02-14T03:29:46.730Z,22.20
2023-02-14T03:32:40.610Z,23.17
2023-02-14T03:35:31.421Z,22.13
2023-02-14T03:38:15.896Z,22.30
2023-02-14T03:41:04.430Z,21.98
2023-02-14T03:43:42.844Z,23.10
2023-02-14T03:46:38.268Z,19.63
2023-02-14T03:49:14.866Z,23.33
2023-02-14T03:51:51.105Z,22.85
2023-02-14T03:54:26.334Z,20.63
2023-02-14T03:57:28.158Z,19.75
2023-02-14T04:00:00.285Z,24.30
2023-02-14T04:02:42.082Z,20.15
2023-02-14T04:05:19.821Z,24.80
2023-02-14T04:07:57.119Z,25.52
2023-02-14T04:10:29.085Z,22.77
2023-02-14T04:13:01.364Z,21.58
2023-02-14T04:15:33.304Z,18.38
2023-02-14T04:18:24.236Z,22.85
2023-02-14T04:23:28.557Z,24.90
2023-02-14T04:26:00.566Z,25.73
2023-02-14T04:28:33.228Z,27.38
2023-02-14T04:31:07.115Z,22.20
2023-02-14T04:33:39.778Z,23.60
2023-02-14T04:36:12.006Z,25.52
2023-02-14T04:38:43.968Z,22.10
2023-02-14T04:41:15.901Z,20.23
2023-02-14T04:43:47.866Z,22.50
2023-02-14T04:46:19.743Z,20.20
2023-02-14T04:48:51.602Z,24.27
2023-02-14T04:51:23.602Z,25.27
2023-02-14T04:53:55.595Z,19.90
2023-02-14T04:56:27.586Z,19.63
2023-02-14T04:58:59.586Z,24.60
2023-02-14T05:01:31.685Z,20.60
2023-02-14T05:04:03.774Z,27.98
2023-02-14T05:06:35.929Z,22.95
2023-02-14T05:09:07.962Z,26.67
2023-02-14T05:11:39.884Z,20.20
2023-02-14T05:14:12.148Z,26.40
2023-02-14T05:16:44.209Z,23.88
2023-02-14T05:19:16.402Z,26.90
2023-02-14T05:21:48.416Z,25.63
2023-02-14T05:24:20.417Z,27.98
2023-02-14T05:26:52.663Z,27.55
2023-02-14T05:29:25.003Z,29.13
2023-02-14T05:31:57.139Z,29.17
2023-02-14T05:34:29.292Z,23.48
2023-02-14T05:37:03.472Z,26.45
2023-02-14T05:39:35.410Z,24.40
2023-02-14T05:44:39.341Z,28.08
2023-02-14T05:47:13.089Z,32.47
2023-02-14T05:49:45.279Z,27.33
2023-02-14T05:52:17.174Z,27.83
2023-02-14T05:54:49.173Z,30.45
2023-02-14T05:57:21.404Z,28.38
2023-02-14T05:59:53.635Z,25.80
2023-02-14T06:02:25.923Z,25.73
2023-02-14T06:04:57.798Z,24.65
2023-02-14T06:07:29.761Z,29.05
2023-02-14T06:10:01.839Z,26.92
2023-02-14T06:12:33.836Z,27.15
2023-02-14T06:15:06.207Z,25.52
2023-02-14T06:17:38.371Z,26.73
2023-02-14T06:20:11.319Z,29.30
2023-02-14T06:22:43.195Z,27.15
2023-02-14T06:25:15.145Z,27.83
2023-02-14T06:27:49.134Z,24.08
2023-02-14T06:30:21.570Z,24.83
2023-02-14T06:32:53.527Z,25.38
2023-02-14T06:35:25.620Z,27.17
2023-02-14T06:37:57.631Z,28.85
2023-02-14T06:40:29.575Z,24.20
2023-02-14T06:43:02.751Z,26.15
2023-02-14T06:45:34.767Z,25.30
2023-02-14T06:48:06.780Z,28.90
2023-02-14T06:50:41.031Z,22.98
2023-02-14T06:53:12.990Z,23.73
2023-02-14T06:55:45.019Z,27.50
2023-02-14T06:58:17.066Z,27.42
2023-02-14T07:00:49.034Z,40.20
2023-02-14T07:03:21.032Z,22.33
2023-02-14T07:05:53.849Z,25.48
2023-02-14T07:08:26.371Z,38.80
2023-02-14T07:10:59.405Z,36.67
2023-02-14T07:13:31.590Z,29.00
2023-02-14T07:16:04.753Z,29.58
2023-02-14T07:18:36.689Z,27.38
2023-02-14T07:21:08.575Z,26.70
2023-02-14T07:23:40.656Z,33.83
2023-02-14T07:26:12.659Z,25.52
2023-02-14T07:28:45.854Z,27.73
2023-02-14T07:31:20.209Z,27.80
2023-02-14T07:33:52.626Z,22.70
2023-02-14T07:36:24.598Z,32.60
2023-02-14T07:38:57.784Z,33.40
2023-02-14T07:41:29.966Z,32.60
2023-02-14T07:44:01.957Z,35.72
2023-02-14T07:46:33.968Z,37.00
2023-02-14T07:49:05.954Z,32.00
2023-02-14T07:51:37.948Z,36.75
2023-02-14T07:54:09.924Z,36.05
2023-02-14T07:56:42.036Z,37.17
2023-02-14T07:59:14.275Z,33.00
2023-02-14T08:01:46.371Z,28.48
2023-02-14T08:04:18.614Z,32.85
2023-02-14T08:06:50.507Z,35.92
2023-02-14T08:09:25.412Z,35.45
2023-02-14T08:12:17.125Z,39.10
2023-02-14T08:14:49.122Z,38.20
2023-02-14T08:17:21.068Z,36.97
2023-02-14T08:19:53.048Z,42.13
2023-02-14T08:22:25.008Z,37.05
2023-02-14T08:24:56.956Z,36.95
2023-02-14T08:27:28.944Z,38.05
2023-02-14T08:30:00.987Z,39.00
2023-02-14T08:32:33.091Z,33.50
2023-02-14T08:35:05.388Z,36.15
2023-02-14T08:37:37.381Z,38.28
2023-02-14T08:40:09.818Z,41.00
2023-02-14T08:42:42.469Z,38.92
2023-02-14T08:45:14.749Z,35.47
2023-02-14T08:47:46.623Z,36.63
2023-02-14T08:50:19.236Z,36.83
2023-02-14T08:52:51.107Z,35.67
2023-02-14T08:55:23.195Z,41.88
2023-02-14T08:57:57.387Z,37.10
2023-02-14T09:00:30.096Z,46.80
2023-02-14T09:03:02.309Z,33.28
2023-02-14T09:05:34.895Z,39.88
2023-02-14T09:08:07.984Z,45.05
2023-02-14T09:10:39.941Z,35.40
2023-02-14T09:13:12.291Z,35.33
2023-02-14T09:15:44.261Z,30.63
2023-02-14T09:18:16.771Z,32.85
2023-02-14T09:20:48.852Z,34.10
2023-02-14T09:23:20.856Z,27.27
2023-02-14T09:25:59.733Z,30.08
2023-02-14T09:28:32.234Z,35.03
2023-02-14T09:31:18.954Z,38.15
2023-02-14T09:34:11.362Z,38.17
2023-02-14T09:36:43.484Z,41.58
2023-02-14T09:39:16.120Z,36.13
2023-02-14T09:42:06.389Z,38.03
2023-02-14T09:44:58.382Z,32.03
2023-02-14T09:47:52.400Z,36.28
2023-02-14T09:50:56.640Z,37.13
2023-02-14T09:53:37.499Z,38.30
2023-02-14T09:59:05.666Z,31.50
2023-02-14T10:01:50.203Z,32.25
2023-02-14T10:04:48.461Z,52.47
2023-02-14T10:07:40.489Z,58.17
2023-02-14T10:10:21.561Z,39.80
2023-02-14T10:13:01.738Z,41.90
2023-02-14T10:15:43.725Z,38.72
2023-02-14T10:18:44.873Z,37.22
2023-02-14T10:21:57.219Z,31.23
2023-02-14T10:24:37.204Z,31.10
2023-02-14T10:27:17.333Z,29.50
2023-02-14T10:29:49.384Z,35.33
2023-02-14T10:32:42.312Z,27.52
2023-02-14T10:35:26.412Z,30.50
2023-02-14T10:38:04.360Z,26.70
2023-02-14T10:40:56.527Z,29.77
2023-02-14T10:43:34.609Z,26.88
2023-02-14T10:46:27.754Z,30.67
2023-02-14T10:49:29.222Z,27.75
2023-02-14T10:52:32.120Z,34.83
2023-02-14T10:55:44.926Z,36.20
2023-02-14T10:58:20.633Z,39.65
2023-02-14T11:01:00.030Z,42.78
2023-02-14T11:03:35.493Z,38.47
2023-02-14T11:06:09.924Z,37.05
2023-02-14T11:08:42.213Z,39.00
2023-02-14T11:11:27.679Z,40.47
2023-02-14T11:13:59.712Z,48.97
2023-02-14T11:16:35.088Z,40.00
2023-02-14T11:19:16.299Z,36.80
2023-02-14T11:21:51.226Z,30.02
2023-02-14T11:24:31.689Z,34.22
2023-02-14T11:27:05.782Z,29.10
2023-02-14T11:29:49.350Z,29.30
2023-02-14T11:32:30.028Z,34.08
2023-02-14T11:35:21.385Z,29.35
2023-02-14T11:37:55.798Z,32.60
2023-02-14T11:40:34.461Z,31.85
2023-02-14T11:43:15.351Z,34.47
2023-02-14T11:45:49.567Z,36.03
2023-02-14T11:48:37.839Z,35.50
2023-02-14T11:51:14.286Z,34.28
2023-02-14T11:53:52.500Z,36.10
2023-02-14T11:56:24.887Z,33.83
2023-02-14T11:58:58.440Z,34.35
2023-02-14T12:01:36.352Z,38.25
2023-02-14T12:04:18.243Z,41.35
2023-02-14T12:06:50.590Z,33.33
2023-02-14T12:09:22.427Z,33.60
2023-02-14T12:11:58.911Z,30.92
2023-02-14T12:14:34.054Z,30.73
2023-02-14T12:17:12.150Z,30.55
2023-02-14T12:19:52.095Z,32.95
2023-02-14T12:22:34.033Z,35.57
2023-02-14T12:25:17.664Z,43.30
2023-02-14T12:27:56.102Z,33.55
2023-02-14T12:30:32.446Z,37.55
2023-02-14T12:33:19.557Z,45.72
2023-02-14T12:36:18.945Z,28.70
2023-02-14T12:39:00.129Z,32.63
2023-02-14T12:41:41.098Z,35.75
2023-02-14T12:44:41.181Z,35.47
2023-02-14T12:47:28.298Z,33.53
2023-02-14T12:50:27.962Z,36.22
2023-02-14T12:53:18.873Z,34.08
2023-02-14T12:59:01.965Z,34.72
2023-02-14T13:02:04.869Z,89.00
2023-02-14T13:04:59.068Z,33.40
2023-02-14T13:07:40.113Z,33.60
2023-02-14T13:10:19.226Z,43.22
2023-02-14T13:12:59.545Z,40.55
2023-02-14T13:15:53.266Z,32.70
2023-02-14T13:18:35.941Z,35.67
2023-02-14T13:21:12.404Z,37.13
2023-02-14T13:23:48.056Z,34.83
2023-02-14T13:26:34.883Z,33.10
2023-02-14T13:29:13.887Z,38.35
2023-02-14T13:31:46.647Z,35.85
2023-02-14T13:34:41.097Z,42.28
2023-02-14T13:37:23.144Z,37.85
2023-02-14T13:40:02.073Z,35.65
2023-02-14T13:42:50.131Z,37.33
2023-02-14T13:45:40.282Z,37.67
2023-02-14T13:48:21.873Z,37.13
2023-02-14T13:51:01.639Z,40.97
2023-02-14T13:53:48.711Z,40.95
2023-02-14T13:56:21.354Z,46.17
2023-02-14T13:59:04.902Z,44.70
2023-02-14T14:01:42.624Z,45.15
2023-02-14T14:04:43.990Z,46.28
2023-02-14T14:07:34.106Z,40.30
2023-02-14T14:10:06.854Z,42.63
2023-02-14T14:12:40.096Z,38.40
2023-02-14T14:15:17.077Z,44.47
2023-02-14T14:18:13.687Z,39.95
2023-02-14T14:20:48.420Z,36.42
2023-02-14T14:23:32.953Z,43.03
2023-02-14T14:26:40.553Z,39.45
2023-02-14T14:29:49.845Z,35.95
2023-02-14T14:32:35.686Z,38.75
2023-02-14T14:35:19.845Z,35.50
2023-02-14T14:37:57.375Z,45.35
2023-02-14T14:40:32.418Z,43.10
2023-02-14T14:43:13.155Z,41.42
2023-02-14T14:45:51.830Z,47.63
2023-02-14T14:48:45.958Z,53.67
2023-02-14T14:51:29.812Z,56.83
2023-02-14T14:54:06.462Z,45.90
2023-02-14T14:56:51.845Z,34.28
2023-02-14T14:59:23.693Z,40.67
2023-02-14T15:01:55.823Z,46.97
2023-02-14T15:04:31.788Z,46.45
2023-02-14T15:07:28.124Z,42.67
2023-02-14T15:10:01.155Z,45.72
2023-02-14T15:12:52.142Z,62.28
2023-02-14T15:17:56.470Z,47.05
2023-02-14T15:20:28.584Z,50.58
2023-02-14T15:23:01.639Z,47.90
2023-02-14T15:25:37.060Z,51.67
2023-02-14T15:28:17.534Z,48.67
2023-02-14T15:30:57.105Z,47.78
2023-02-14T15:33:31.417Z,45.03
2023-02-14T15:36:07.006Z,47.83
2023-02-14T15:38:42.264Z,52.20
2023-02-14T15:41:16.127Z,46.72
2023-02-14T15:43:54.075Z,58.40
2023-02-14T15:46:39.352Z,51.15
2023-02-14T15:49:16.651Z,65.15
2023-02-14T15:51:50.770Z,58.45
2023-02-14T15:54:58.308Z,54.72
2023-02-14T15:57:30.766Z,70.65
2023-02-14T16:00:11.559Z,65.97
2023-02-14T16:05:22.216Z,67.82
2023-02-14T16:08:00.112Z,62.95
2023-02-14T16:10:34.213Z,64.15
2023-02-14T16:13:16.459Z,56.08
2023-02-14T16:16:01.465Z,53.40
2023-02-14T16:18:41.425Z,49.53
2023-02-14T16:21:30.781Z,50.08
2023-02-14T16:24:11.019Z,46.17
2023-02-14T16:26:45.066Z,54.50
2023-02-14T16:29:21.207Z,51.40
2023-02-14T16:32:14.588Z,53.05
2023-02-14T16:34:48.502Z,51.13
2023-02-14T16:37:24.049Z,64.68
2023-02-14T16:39:59.818Z,62.92
2023-02-14T16:42:33.012Z,52.80
2023-02-14T16:45:05.536Z,62.88
2023-02-14T16:47:37.442Z,69.35
2023-02-14T16:50:10.008Z,68.38
2023-02-14T16:52:44.514Z,64.50
2023-02-14T16:55:20.246Z,76.05
2023-02-14T16:57:53.485Z,65.65
2023-02-14T17:00:27.677Z,96.70
2023-02-14T17:03:11.763Z,63.35
2023-02-14T17:05:44.027Z,79.78
2023-02-14T17:08:16.327Z,74.50
2023-02-14T17:10:49.097Z,80.32
2023-02-14T17:13:24.522Z,66.10
2023-02-14T17:15:57.310Z,61.92
2023-02-14T17:18:32.533Z,56.40
2023-02-14T17:21:05.442Z,69.10
2023-02-14T17:23:37.396Z,59.00
2023-02-14T17:26:11.530Z,60.95
2023-02-14T17:28:43.560Z,57.65
2023-02-14T17:31:15.956Z,58.67
2023-02-14T17:33:48.850Z,71.35
2023-02-14T17:36:20.836Z,71.18
2023-02-14T17:38:54.908Z,65.45
2023-02-14T17:41:27.061Z,70.22
2023-02-14T17:44:00.541Z,71.18
2023-02-14T17:46:32.775Z,61.45
2023-02-14T17:49:04.716Z,61.53
2023-02-14T17:51:36.575Z,65.57
2023-02-14T17:54:08.500Z,61.03
2023-02-14T17:56:40.707Z,70.30
2023-02-14T17:59:12.672Z,72.88
2023-02-14T18:01:44.736Z,71.07
2023-02-14T18:04:16.633Z,77.00
2023-02-14T18:06:48.630Z,79.70
2023-02-14T18:09:20.481Z,73.78
2023-02-14T18:11:52.430Z,57.13
2023-02-14T18:14:24.829Z,54.55
2023-02-14T18:16:56.687Z,62.60
2023-02-14T18:19:29.341Z,56.78
2023-02-14T18:22:01.225Z,59.25
2023-02-14T18:24:33.233Z,59.75
2023-02-14T18:27:06.432Z,70.50
2023-02-14T18:29:39.592Z,65.55
2023-02-14T18:32:11.804Z,70.22
2023-02-14T18:34:43.809Z,70.47
2023-02-14T18:37:15.768Z,68.47
2023-02-14T18:39:47.754Z,63.30
2023-02-14T18:42:19.701Z,52.97
2023-02-14T18:44:51.639Z,66.00
2023-02-14T18:47:23.597Z,55.15
2023-02-14T18:49:55.588Z,57.17
2023-02-14T18:52:27.544Z,76.35
2023-02-14T18:54:59.777Z,64.95
2023-02-14T18:57:34.493Z,70.97
2023-02-14T19:00:12.258Z,69.03
2023-02-14T19:02:44.220Z,76.65
2023-02-14T19:05:16.226Z,90.00
2023-02-14T19:07:48.227Z,68.90
2023-02-14T19:10:20.405Z,73.78
2023-02-14T19:12:53.497Z,68.47
2023-02-14T19:15:25.476Z,78.13
2023-02-14T19:17:57.476Z,71.22
2023-02-14T19:20:29.497Z,67.15
2023-02-14T19:23:01.432Z,59.70
2023-02-14T19:25:34.847Z,59.60
2023-02-14T19:28:10.015Z,59.00
2023-02-14T19:30:41.998Z,69.40
2023-02-14T19:33:13.957Z,63.63
2023-02-14T19:35:45.973Z,63.92
2023-02-14T19:38:17.892Z,65.43
2023-02-14T19:40:49.996Z,63.90
2023-02-14T19:43:21.924Z,63.20
2023-02-14T19:45:53.775Z,65.45
2023-02-14T19:48:25.826Z,71.28
2023-02-14T19:51:00.894Z,65.25
2023-02-14T19:53:35.121Z,67.88
2023-02-14T19:56:07.012Z,65.45
2023-02-14T19:58:39.266Z,76.97
2023-02-14T20:01:42.308Z,71.45
2023-02-14T20:04:18.024Z,77.28
2023-02-14T20:06:50.885Z,74.28
2023-02-14T20:09:23.744Z,79.72
2023-02-14T20:11:57.332Z,70.95
2023-02-14T20:14:50.267Z,85.80
2023-02-14T20:17:23.077Z,75.63
2023-02-14T20:19:56.278Z,79.97
2023-02-14T20:22:28.457Z,79.25
2023-02-14T20:25:00.461Z,76.18
2023-02-14T20:27:32.396Z,76.78
2023-02-14T20:30:06.713Z,90.45
2023-02-14T20:32:38.705Z,79.18
2023-02-14T20:35:10.577Z,74.32
2023-02-14T20:37:42.603Z,82.13
2023-02-14T20:40:14.725Z,84.18
2023-02-14T20:42:49.639Z,87.32
2023-02-14T20:45:21.616Z,79.47
2023-02-14T20:47:53.793Z,78.32
2023-02-14T20:50:25.782Z,82.32
2023-02-14T20:52:57.942Z,82.63
2023-02-14T20:55:31.442Z,80.72
2023-02-14T20:58:04.175Z,79.10
2023-02-14T21:00:36.166Z,71.68
2023-02-14T21:03:08.153Z,82.15
2023-02-14T21:05:40.908Z,72.95
2023-02-14T21:08:12.856Z,75.10
2023-02-14T21:10:44.820Z,73.35
2023-02-14T21:13:16.682Z,68.63
2023-02-14T21:15:48.711Z,70.00
2023-02-14T21:18:20.727Z,70.35
2023-02-14T21:20:54.914Z,65.82
2023-02-14T21:23:26.855Z,71.28
2023-02-14T21:25:58.885Z,65.32
2023-02-14T21:28:30.990Z,68.22
2023-02-14T21:31:08.352Z,70.38
2023-02-14T21:33:40.498Z,63.55
2023-02-14T21:36:15.184Z,66.95
2023-02-14T21:38:47.327Z,75.40
2023-02-14T21:41:21.873Z,66.32
2023-02-14T21:43:58.005Z,76.13
2023-02-14T21:46:37.164Z,63.33
2023-02-14T21:49:27.689Z,72.70
2023-02-14T21:51:59.788Z,68.65
2023-02-14T21:54:31.648Z,73.43
2023-02-14T21:57:03.645Z,74.90
2023-02-14T21:59:35.555Z,67.03
2023-02-14T22:02:07.830Z,69.57
2023-02-14T22:04:40.519Z,68.10
2023-02-14T22:07:12.702Z,64.63
2023-02-14T22:09:44.588Z,71.57
2023-02-14T22:12:16.580Z,62.22
2023-02-14T22:14:48.450Z,67.28
2023-02-14T22:17:20.374Z,67.28
2023-02-14T22:19:52.296Z,65.63
2023-02-14T22:22:24.350Z,62.53
2023-02-14T22:24:56.360Z,59.92
2023-02-14T22:27:28.356Z,58.95
2023-02-14T22:30:00.711Z,68.78
2023-02-14T22:32:32.699Z,56.92
2023-02-14T22:35:04.921Z,60.63
2023-02-14T22:37:36.988Z,54.25
2023-02-14T22:40:10.185Z,53.70
2023-02-14T22:42:42.156Z,55.97
2023-02-14T22:45:14.168Z,61.08
2023-02-14T22:47:46.039Z,59.55
2023-02-14T22:50:18.264Z,55.42
2023-02-14T22:52:50.260Z,60.55
2023-02-14T22:55:22.434Z,68.68
2023-02-14T22:57:55.105Z,55.95
2023-02-14T23:00:27.176Z,61.85
2023-02-14T23:02:59.184Z,71.50
2023-02-14T23:05:31.224Z,61.15
2023-02-14T23:08:03.291Z,62.15
2023-02-14T23:10:35.231Z,56.28
2023-02-14T23:13:25.812Z,63.97
2023-02-14T23:16:16.616Z,63.13
2023-02-14T23:21:57.369Z,54.33
2023-02-14T23:24:29.310Z,58.72
2023-02-14T23:27:01.956Z,57.78
2023-02-14T23:29:34.508Z,62.85
2023-02-14T23:32:07.781Z,63.22
2023-02-14T23:34:41.778Z,65.43
2023-02-14T23:37:14.807Z,58.83
2023-02-14T23:39:46.832Z,57.60
2023-02-14T23:42:19.114Z,62.13
2023-02-14T23:44:51.111Z,68.00
2023-02-14T23:47:23.106Z,63.45
2023-02-14T23:49:55.264Z,54.35
2023-02-14T23:52:27.242Z,59.13
2023-02-14T23:54:59.212Z,62.60
2023-02-14T23:57:32.000Z,68.10
